createdAt,value
2018-03-30T00:02:05.017Z,65.38
2018-03-30T00:04:32.443Z,65.27
2018-03-30T00:07:07.788Z,65.20
2018-03-30T00:09:47.111Z,65.50
2018-03-30T00:12:14.779Z,65.97
2018-03-30T00:14:42.169Z,66.42
2018-03-30T00:17:09.567Z,66.74
2018-03-30T00:19:37.008Z,67.09
2018-03-30T00:22:04.500Z,67.29
2018-03-30T00:24:31.915Z,67.51
2018-03-30T00:26:59.400Z,67.66
2018-03-30T00:29:26.858Z,67.78
2018-03-30T00:31:54.274Z,67.68
2018-03-30T00:34:21.693Z,67.87
2018-03-30T00:36:49.153Z,68.12
2018-03-30T00:39:16.576Z,67.84
2018-03-30T00:41:44.012Z,67.76
2018-03-30T00:44:11.448Z,68.15
2018-03-30T00:46:38.910Z,68.17
2018-03-30T00:49:06.358Z,68.04
2018-03-30T00:51:33.788Z,68.20
2018-03-30T00:54:01.183Z,68.31
2018-03-30T00:56:28.634Z,68.46
2018-03-30T00:58:56.076Z,68.19
2018-03-30T01:01:23.503Z,68.10
2018-03-30T01:03:50.950Z,68.45
2018-03-30T01:06:18.405Z,68.79
2018-03-30T01:08:45.803Z,68.81
2018-03-30T01:11:13.189Z,68.97
2018-03-30T01:13:40.672Z,69.19
2018-03-30T01:16:09.068Z,69.15
2018-03-30T01:18:36.542Z,69.37
2018-03-30T01:21:03.996Z,69.26
2018-03-30T01:23:31.396Z,69.00
2018-03-30T01:25:58.833Z,69.12
2018-03-30T01:28:26.274Z,69.20
2018-03-30T01:30:53.705Z,69.14
2018-03-30T01:33:21.162Z,69.43
2018-03-30T01:35:48.949Z,69.35
2018-03-30T01:38:16.373Z,69.36
2018-03-30T01:40:44.306Z,69.52
2018-03-30T01:43:11.758Z,69.54
2018-03-30T01:45:39.208Z,69.52
2018-03-30T01:48:06.601Z,69.78
2018-03-30T01:50:34.001Z,69.81
2018-03-30T01:53:01.620Z,69.84
2018-03-30T01:55:29.031Z,69.80
2018-03-30T01:57:56.486Z,69.67
2018-03-30T02:00:23.915Z,69.74
2018-03-30T02:02:51.316Z,69.68
2018-03-30T02:05:18.710Z,69.50
2018-03-30T02:07:46.145Z,69.52
2018-03-30T02:10:13.958Z,69.59
2018-03-30T02:12:41.392Z,69.57
2018-03-30T02:15:08.824Z,69.60
2018-03-30T02:17:36.245Z,69.40
2018-03-30T02:20:03.640Z,69.51
2018-03-30T02:22:31.406Z,69.63
2018-03-30T02:24:58.846Z,69.60
2018-03-30T02:27:26.723Z,69.59
2018-03-30T02:29:54.176Z,69.62
2018-03-30T02:32:21.906Z,69.51
2018-03-30T02:34:49.498Z,69.33
2018-03-30T02:37:16.923Z,69.47
2018-03-30T02:39:44.408Z,69.50
2018-03-30T02:42:11.871Z,69.57
2018-03-30T02:44:39.265Z,69.67
2018-03-30T02:47:06.699Z,69.72
2018-03-30T02:49:34.157Z,69.81
2018-03-30T02:52:01.631Z,69.78
2018-03-30T02:54:29.144Z,69.79
2018-03-30T02:56:56.640Z,69.88
2018-03-30T02:59:24.085Z,69.94
2018-03-30T03:01:51.558Z,69.91
2018-03-30T03:04:19.941Z,69.96
2018-03-30T03:06:47.688Z,70.05
2018-03-30T03:09:15.121Z,70.17
2018-03-30T03:11:42.533Z,70.13
2018-03-30T03:14:09.958Z,70.07
2018-03-30T03:16:37.360Z,70.10
2018-03-30T03:19:04.823Z,70.20
2018-03-30T03:21:32.254Z,70.26
2018-03-30T03:23:59.862Z,70.46
2018-03-30T03:26:27.248Z,70.38
2018-03-30T03:28:54.711Z,70.37
2018-03-30T03:31:22.109Z,70.30
2018-03-30T03:33:49.545Z,70.64
2018-03-30T03:36:16.973Z,70.90
2018-03-30T03:38:44.432Z,70.83
2018-03-30T03:41:11.871Z,70.78
2018-03-30T03:43:39.335Z,70.68
2018-03-30T03:46:06.800Z,70.81
2018-03-30T03:48:34.280Z,71.01
2018-03-30T03:51:01.706Z,71.12
2018-03-30T03:53:29.113Z,70.88
2018-03-30T03:55:56.543Z,70.82
2018-03-30T03:58:23.994Z,71.02
2018-03-30T04:00:51.407Z,71.16
2018-03-30T04:03:18.880Z,71.15
2018-03-30T04:05:46.385Z,71.12
2018-03-30T04:08:13.774Z,71.13
2018-03-30T04:10:41.251Z,71.22
2018-03-30T04:13:08.675Z,71.09
2018-03-30T04:15:36.061Z,70.84
2018-03-30T04:18:04.023Z,71.00
2018-03-30T04:20:31.410Z,71.29
2018-03-30T04:22:58.865Z,71.34
2018-03-30T04:25:26.299Z,71.27
2018-03-30T04:27:53.726Z,71.03
2018-03-30T04:30:21.754Z,70.94
2018-03-30T04:32:49.191Z,70.92
2018-03-30T04:35:16.644Z,70.90
2018-03-30T04:37:44.105Z,70.96
2018-03-30T04:40:11.499Z,70.81
2018-03-30T04:42:38.938Z,70.84
2018-03-30T04:45:06.358Z,70.65
2018-03-30T04:47:33.760Z,70.68
2018-03-30T04:50:01.195Z,70.73
2018-03-30T04:52:28.621Z,70.77
2018-03-30T04:54:56.097Z,70.67
2018-03-30T04:57:23.874Z,70.72
2018-03-30T04:59:51.361Z,70.97
2018-03-30T05:02:18.747Z,70.95
2018-03-30T05:04:46.173Z,70.68
2018-03-30T05:07:13.627Z,70.78
2018-03-30T05:09:41.065Z,70.73
2018-03-30T05:12:08.509Z,71.15
2018-03-30T05:14:35.963Z,71.23
2018-03-30T05:17:03.383Z,70.69
2018-03-30T05:19:30.846Z,70.46
2018-03-30T05:21:58.371Z,70.26
2018-03-30T05:24:25.764Z,70.29
2018-03-30T05:26:53.228Z,70.46
2018-03-30T05:29:20.682Z,70.77
2018-03-30T05:31:48.109Z,70.44
2018-03-30T05:34:15.635Z,70.42
2018-03-30T05:36:43.245Z,70.53
2018-03-30T05:39:10.677Z,70.55
2018-03-30T05:41:38.308Z,70.80
2018-03-30T05:44:05.769Z,70.54
2018-03-30T05:46:33.223Z,70.74
2018-03-30T05:49:00.650Z,71.08
2018-03-30T05:51:28.102Z,71.15
2018-03-30T05:53:55.558Z,71.05
2018-03-30T05:56:23.841Z,70.98
2018-03-30T05:58:51.297Z,71.48
2018-03-30T06:01:18.724Z,71.36
2018-03-30T06:03:46.580Z,71.40
2018-03-30T06:06:14.060Z,71.58
2018-03-30T06:08:41.530Z,71.37
2018-03-30T06:11:08.956Z,71.28
2018-03-30T06:13:37.363Z,71.17
2018-03-30T06:16:04.790Z,71.24
2018-03-30T06:18:32.202Z,70.96
2018-03-30T06:20:59.673Z,70.78
2018-03-30T06:23:27.068Z,70.62
2018-03-30T06:25:54.499Z,71.08
2018-03-30T06:28:21.932Z,71.21
2018-03-30T06:30:49.366Z,71.25
2018-03-30T06:33:16.763Z,71.34
2018-03-30T06:35:44.584Z,71.31
2018-03-30T06:38:11.987Z,71.47
2018-03-30T06:40:39.439Z,71.90
2018-03-30T06:43:06.872Z,71.83
2018-03-30T06:45:34.350Z,71.58
2018-03-30T06:48:01.844Z,71.24
2018-03-30T06:50:29.285Z,71.33
2018-03-30T06:52:56.720Z,71.16
2018-03-30T06:55:24.123Z,71.19
2018-03-30T06:57:51.555Z,71.12
2018-03-30T07:00:18.986Z,71.30
2018-03-30T07:02:46.404Z,70.87
2018-03-30T07:05:13.914Z,71.17
2018-03-30T07:07:41.329Z,71.16
2018-03-30T07:10:08.764Z,71.02
2018-03-30T07:12:36.246Z,70.72
2018-03-30T07:15:03.651Z,70.84
2018-03-30T07:17:31.102Z,70.67
2018-03-30T07:19:58.516Z,70.29
2018-03-30T07:22:26.105Z,70.42
2018-03-30T07:24:53.558Z,71.02
2018-03-30T07:27:20.948Z,71.14
2018-03-30T07:29:48.369Z,71.25
2018-03-30T07:32:15.844Z,71.20
2018-03-30T07:34:43.563Z,71.31
2018-03-30T07:37:10.997Z,72.03
2018-03-30T07:39:38.406Z,71.88
2018-03-30T07:42:05.840Z,71.33
2018-03-30T07:44:33.273Z,71.50
2018-03-30T07:47:00.672Z,71.88
2018-03-30T07:49:28.256Z,71.54
2018-03-30T07:51:55.694Z,71.93
2018-03-30T07:54:23.092Z,72.01
2018-03-30T07:56:50.541Z,71.76
2018-03-30T07:59:17.981Z,71.65
2018-03-30T08:01:45.368Z,71.65
2018-03-30T08:04:12.833Z,71.36
2018-03-30T08:06:40.264Z,71.27
2018-03-30T08:09:07.758Z,71.33
2018-03-30T08:11:35.228Z,71.39
2018-03-30T08:14:02.898Z,71.13
2018-03-30T08:16:30.329Z,70.68
2018-03-30T08:18:57.806Z,71.03
2018-03-30T08:21:25.283Z,71.22
2018-03-30T08:23:52.680Z,70.87
2018-03-30T08:26:20.165Z,70.52
2018-03-30T08:28:47.556Z,70.37
2018-03-30T08:31:15.010Z,70.51
2018-03-30T08:33:42.455Z,70.47
2018-03-30T08:36:09.983Z,70.58
2018-03-30T08:38:37.401Z,69.90
2018-03-30T08:41:04.823Z,69.61
2018-03-30T08:43:32.283Z,69.67
2018-03-30T08:45:59.756Z,69.03
2018-03-30T08:48:27.718Z,69.00
2018-03-30T08:50:55.153Z,69.05
2018-03-30T08:53:22.614Z,69.26
2018-03-30T08:55:50.060Z,68.42
2018-03-30T08:58:17.489Z,67.62
2018-03-30T09:00:44.958Z,67.26
2018-03-30T09:03:12.405Z,67.15
2018-03-30T09:05:39.873Z,67.29
2018-03-30T09:08:07.335Z,65.94
2018-03-30T09:10:34.785Z,64.79
2018-03-30T09:13:02.206Z,64.25
2018-03-30T09:15:29.620Z,63.59
2018-03-30T09:17:57.039Z,61.24
2018-03-30T09:20:24.498Z,58.40
2018-03-30T09:22:51.861Z,56.62
2018-03-30T09:25:19.316Z,56.41
2018-03-30T09:27:47.143Z,55.76
2018-03-30T09:30:14.543Z,56.92
2018-03-30T09:32:41.955Z,57.27
2018-03-30T09:35:09.398Z,56.32
2018-03-30T09:37:36.866Z,54.79
2018-03-30T09:40:04.325Z,54.33
2018-03-30T09:42:31.749Z,53.80
2018-03-30T09:44:59.227Z,53.06
2018-03-30T09:47:26.632Z,52.72
2018-03-30T09:49:54.102Z,52.97
2018-03-30T09:52:21.537Z,53.36
2018-03-30T09:54:49.006Z,54.21
2018-03-30T09:57:16.419Z,54.76
2018-03-30T09:59:43.869Z,54.73
2018-03-30T10:02:11.361Z,54.78
2018-03-30T10:04:45.013Z,55.14
2018-03-30T10:07:12.457Z,55.36
2018-03-30T10:09:40.157Z,54.32
2018-03-30T10:12:07.549Z,54.13
2018-03-30T10:14:35.026Z,53.63
2018-03-30T10:17:02.518Z,53.66
2018-03-30T10:19:30.019Z,54.48
2018-03-30T10:21:58.249Z,55.73
2018-03-30T10:24:25.676Z,56.66
2018-03-30T10:26:53.653Z,56.02
2018-03-30T10:29:21.065Z,56.83
2018-03-30T10:31:48.518Z,57.93
2018-03-30T10:34:15.915Z,58.28
2018-03-30T10:36:43.336Z,58.14
2018-03-30T10:39:10.812Z,58.51
2018-03-30T10:41:38.280Z,58.69
2018-03-30T10:44:05.690Z,58.91
2018-03-30T10:46:33.149Z,58.52
2018-03-30T10:49:00.651Z,58.46
2018-03-30T10:51:28.279Z,58.04
2018-03-30T10:53:55.701Z,57.86
2018-03-30T10:56:23.138Z,58.25
2018-03-30T10:58:50.585Z,58.48
2018-03-30T11:01:18.059Z,59.20
2018-03-30T11:03:45.488Z,59.54
2018-03-30T11:06:12.894Z,59.67
2018-03-30T11:08:40.560Z,60.28
2018-03-30T11:11:08.917Z,60.37
2018-03-30T11:13:36.414Z,59.98
2018-03-30T11:16:03.838Z,59.55
2018-03-30T11:18:31.306Z,59.54
2018-03-30T11:20:58.737Z,60.31
2018-03-30T11:23:26.203Z,61.10
2018-03-30T11:25:53.884Z,60.55
2018-03-30T11:28:21.327Z,60.21
2018-03-30T11:30:48.742Z,60.67
2018-03-30T11:33:16.185Z,60.09
2018-03-30T11:35:43.604Z,59.80
2018-03-30T11:38:11.087Z,59.86
2018-03-30T11:40:38.482Z,59.94
2018-03-30T11:43:05.977Z,60.72
2018-03-30T11:45:33.764Z,60.50
2018-03-30T11:48:01.204Z,60.49
2018-03-30T11:50:28.673Z,60.60
2018-03-30T11:52:56.052Z,61.15
2018-03-30T11:55:23.509Z,60.86
2018-03-30T11:57:50.943Z,61.80
2018-03-30T12:00:18.437Z,63.15
2018-03-30T12:02:45.906Z,64.50
2018-03-30T12:05:13.328Z,66.69
2018-03-30T12:07:40.768Z,68.26
2018-03-30T12:10:08.230Z,68.99
2018-03-30T12:12:35.654Z,71.56
2018-03-30T12:15:03.092Z,72.15
2018-03-30T12:17:30.486Z,73.10
2018-03-30T12:19:57.920Z,74.83
2018-03-30T12:22:25.600Z,75.03
2018-03-30T12:24:53.187Z,75.66
2018-03-30T12:27:20.623Z,74.60
2018-03-30T12:29:48.093Z,74.94
2018-03-30T12:32:15.504Z,75.27
2018-03-30T12:34:42.990Z,75.16
2018-03-30T12:37:10.416Z,74.99
2018-03-30T12:39:37.984Z,75.26
2018-03-30T12:42:05.502Z,75.45
2018-03-30T12:44:32.960Z,75.22
2018-03-30T12:47:00.426Z,75.37
2018-03-30T12:49:27.887Z,75.01
2018-03-30T12:51:55.307Z,74.54
2018-03-30T12:54:22.796Z,74.80
2018-03-30T12:56:50.249Z,75.00
2018-03-30T12:59:17.642Z,75.06
2018-03-30T13:01:45.248Z,74.90
2018-03-30T13:04:12.689Z,75.13
2018-03-30T13:06:40.077Z,75.45
2018-03-30T13:09:07.519Z,75.48
2018-03-30T13:11:34.945Z,76.20
2018-03-30T13:14:02.411Z,75.65
2018-03-30T13:16:29.825Z,75.42
2018-03-30T13:18:57.267Z,75.73
2018-03-30T13:21:24.782Z,75.82
2018-03-30T13:23:52.368Z,76.03
2018-03-30T13:26:19.805Z,75.95
2018-03-30T13:28:47.217Z,77.05
2018-03-30T13:31:14.674Z,77.36
2018-03-30T13:33:42.095Z,76.85
2018-03-30T13:36:09.557Z,75.93
2018-03-30T13:38:36.977Z,75.50
2018-03-30T13:41:04.596Z,74.18
2018-03-30T13:43:32.029Z,73.93
2018-03-30T13:45:59.439Z,75.42
2018-03-30T13:48:26.835Z,75.79
2018-03-30T13:51:10.063Z,76.01
2018-03-30T13:53:42.062Z,76.29
2018-03-30T13:56:11.088Z,76.84
2018-03-30T13:58:38.588Z,77.25
2018-03-30T14:01:18.808Z,77.77
2018-03-30T14:03:48.115Z,77.99
2018-03-30T14:06:29.333Z,77.69
2018-03-30T14:08:57.666Z,77.83
2018-03-30T14:11:25.984Z,77.77
2018-03-30T14:13:53.419Z,77.56
2018-03-30T14:16:28.433Z,77.77
2018-03-30T14:19:13.533Z,77.84
2018-03-30T14:21:44.482Z,77.91
2018-03-30T14:24:26.766Z,77.12
2018-03-30T14:27:00.211Z,76.54
2018-03-30T14:29:29.596Z,75.78
2018-03-30T14:32:05.502Z,76.20
2018-03-30T14:34:34.693Z,76.48
2018-03-30T14:39:56.175Z,77.46
2018-03-30T14:42:36.152Z,77.53
2018-03-30T14:45:17.294Z,77.67
2018-03-30T14:47:46.138Z,77.69
2018-03-30T14:50:16.263Z,77.71
2018-03-30T14:52:52.130Z,77.35
2018-03-30T14:55:40.251Z,77.07
2018-03-30T14:58:12.557Z,77.04
2018-03-30T15:00:42.655Z,77.14
2018-03-30T15:03:26.621Z,77.37
2018-03-30T15:06:00.560Z,77.56
2018-03-30T15:08:37.468Z,77.79
2018-03-30T15:14:10.045Z,77.57
2018-03-30T15:16:40.277Z,77.44
2018-03-30T15:19:14.337Z,77.79
2018-03-30T15:21:45.356Z,76.91
2018-03-30T15:24:18.561Z,76.54
2018-03-30T15:26:50.128Z,76.86
2018-03-30T15:29:24.959Z,76.87
2018-03-30T15:31:59.796Z,77.00
2018-03-30T15:34:27.192Z,76.94
2018-03-30T15:37:04.557Z,76.86
2018-03-30T15:39:32.042Z,76.06
2018-03-30T15:42:01.345Z,75.84
2018-03-30T15:44:29.398Z,75.56
2018-03-30T15:47:07.518Z,75.19
2018-03-30T15:49:36.516Z,75.58
2018-03-30T15:52:07.571Z,75.48
2018-03-30T15:54:35.023Z,75.40
2018-03-30T15:57:02.424Z,75.22
2018-03-30T15:59:29.841Z,75.00
2018-03-30T16:01:57.250Z,74.94
2018-03-30T16:04:24.683Z,74.72
2018-03-30T16:06:52.142Z,74.79
2018-03-30T16:09:30.434Z,74.82
2018-03-30T16:11:59.649Z,75.83
2018-03-30T16:14:27.052Z,76.41
2018-03-30T16:16:54.479Z,76.80
2018-03-30T16:19:21.614Z,76.70
2018-03-30T16:21:48.544Z,76.41
2018-03-30T16:24:15.449Z,76.42
2018-03-30T16:26:42.394Z,76.65
2018-03-30T16:29:09.277Z,76.82
2018-03-30T16:31:36.197Z,77.24
2018-03-30T16:34:03.137Z,77.94
2018-03-30T16:36:30.014Z,77.61
2018-03-30T16:38:56.888Z,77.46
2018-03-30T16:41:23.820Z,77.39
2018-03-30T16:43:50.726Z,78.37
2018-03-30T16:46:17.577Z,78.38
2018-03-30T16:48:44.465Z,77.16
2018-03-30T16:51:11.325Z,76.45
2018-03-30T16:53:38.212Z,76.42
2018-03-30T16:56:05.107Z,76.29
2018-03-30T16:58:32.055Z,76.53
2018-03-30T17:00:59.009Z,76.48
2018-03-30T17:03:25.856Z,76.51
2018-03-30T17:05:52.887Z,76.30
2018-03-30T17:08:19.769Z,76.58
2018-03-30T17:10:46.621Z,76.45
2018-03-30T17:13:13.484Z,76.36
2018-03-30T17:15:40.369Z,76.61
2018-03-30T17:18:07.282Z,76.89
2018-03-30T17:20:34.218Z,76.50
2018-03-30T17:23:01.107Z,77.16
2018-03-30T17:25:27.983Z,77.20
2018-03-30T17:27:54.951Z,77.76
2018-03-30T17:30:21.910Z,77.58
2018-03-30T17:32:48.791Z,77.52
2018-03-30T17:35:15.688Z,77.09
2018-03-30T17:37:42.674Z,77.68
2018-03-30T17:40:09.541Z,77.24
2018-03-30T17:42:37.195Z,77.54
2018-03-30T17:45:04.086Z,77.52
2018-03-30T17:47:30.966Z,77.45
2018-03-30T17:49:57.849Z,77.77
2018-03-30T17:52:24.764Z,78.30
2018-03-30T17:54:51.674Z,78.42
2018-03-30T17:57:18.565Z,78.06
2018-03-30T17:59:45.440Z,78.02
2018-03-30T18:02:12.440Z,78.34
2018-03-30T18:04:39.373Z,78.19
2018-03-30T18:07:06.228Z,78.46
2018-03-30T18:09:33.161Z,78.96
2018-03-30T18:12:00.042Z,78.94
2018-03-30T18:14:26.924Z,78.76
2018-03-30T18:16:53.826Z,78.32
2018-03-30T18:19:20.692Z,77.92
2018-03-30T18:21:47.868Z,77.88
2018-03-30T18:24:14.763Z,77.52
2018-03-30T18:26:41.624Z,77.91
2018-03-30T18:29:08.473Z,78.29
2018-03-30T18:31:35.330Z,78.42
2018-03-30T18:34:02.246Z,78.07
2018-03-30T18:36:29.101Z,77.99
2018-03-30T18:38:56.014Z,78.04
2018-03-30T18:41:22.921Z,77.76
2018-03-30T18:43:50.252Z,77.05
2018-03-30T18:46:17.178Z,77.24
2018-03-30T18:48:44.099Z,75.10
2018-03-30T18:51:10.964Z,75.03
2018-03-30T18:53:37.820Z,75.69
2018-03-30T18:56:04.748Z,75.91
2018-03-30T18:58:31.754Z,76.36
2018-03-30T19:00:58.682Z,76.42
2018-03-30T19:03:25.602Z,76.03
2018-03-30T19:05:52.518Z,75.48
2018-03-30T19:08:19.434Z,75.53
2018-03-30T19:10:46.315Z,75.98
2018-03-30T19:13:13.266Z,76.71
2018-03-30T19:15:40.149Z,76.00
2018-03-30T19:18:07.000Z,76.18
2018-03-30T19:20:33.923Z,76.56
2018-03-30T19:23:00.916Z,76.50
2018-03-30T19:25:27.813Z,76.33
2018-03-30T19:27:54.732Z,76.12
2018-03-30T19:30:21.679Z,75.54
2018-03-30T19:32:49.553Z,75.32
2018-03-30T19:35:16.463Z,75.59
2018-03-30T19:37:43.640Z,75.17
2018-03-30T19:40:10.564Z,74.47
2018-03-30T19:42:37.415Z,73.71
2018-03-30T19:45:04.348Z,73.34
2018-03-30T19:47:31.464Z,73.97
2018-03-30T19:49:58.523Z,74.84
2018-03-30T19:52:25.571Z,74.87
2018-03-30T19:54:52.456Z,74.72
2018-03-30T19:57:19.393Z,74.21
2018-03-30T19:59:46.319Z,74.16
2018-03-30T20:02:13.222Z,74.27
2018-03-30T20:04:40.182Z,74.44
2018-03-30T20:07:07.310Z,74.63
2018-03-30T20:09:34.237Z,74.40
2018-03-30T20:12:01.104Z,75.01
2018-03-30T20:14:28.127Z,75.65
2018-03-30T20:16:55.065Z,75.85
2018-03-30T20:19:21.953Z,76.19
2018-03-30T20:21:48.871Z,76.03
2018-03-30T20:24:15.793Z,76.39
2018-03-30T20:26:42.706Z,76.14
2018-03-30T20:29:09.611Z,76.23
2018-03-30T20:31:36.527Z,76.93
2018-03-30T20:34:03.380Z,77.04
2018-03-30T20:36:30.276Z,76.30
2018-03-30T20:38:57.175Z,75.77
2018-03-30T20:41:24.053Z,75.39
2018-03-30T20:43:50.936Z,74.99
2018-03-30T20:46:17.819Z,75.23
2018-03-30T20:48:44.958Z,75.56
2018-03-30T20:51:11.840Z,75.60
2018-03-30T20:53:38.702Z,75.52
2018-03-30T20:56:05.589Z,75.67
2018-03-30T20:58:32.444Z,75.84
2018-03-30T21:00:59.335Z,74.76
2018-03-30T21:03:26.245Z,74.93
2018-03-30T21:05:53.159Z,75.12
2018-03-30T21:08:20.078Z,75.58
2018-03-30T21:10:46.936Z,75.83
2018-03-30T21:13:13.785Z,75.92
2018-03-30T21:15:40.673Z,76.13
2018-03-30T21:18:07.567Z,75.52
2018-03-30T21:20:34.462Z,75.92
2018-03-30T21:23:01.355Z,75.52
2018-03-30T21:25:28.593Z,76.12
2018-03-30T21:27:56.102Z,76.30
2018-03-30T21:30:22.992Z,75.79
2018-03-30T21:32:49.855Z,76.36
2018-03-30T21:35:16.771Z,76.43
2018-03-30T21:37:43.624Z,76.65
2018-03-30T21:40:10.538Z,77.14
2018-03-30T21:42:37.423Z,77.58
2018-03-30T21:45:04.293Z,77.34
2018-03-30T21:47:31.141Z,77.52
2018-03-30T21:49:58.035Z,77.21
2018-03-30T21:52:24.909Z,77.41
2018-03-30T21:54:51.836Z,77.70
2018-03-30T21:57:18.858Z,78.00
2018-03-30T21:59:45.735Z,77.72
2018-03-30T22:02:12.670Z,77.52
2018-03-30T22:04:39.517Z,76.99
2018-03-30T22:07:06.379Z,77.03
2018-03-30T22:09:33.238Z,77.23
2018-03-30T22:12:00.096Z,77.10
2018-03-30T22:14:26.992Z,77.14
2018-03-30T22:16:53.880Z,76.59
2018-03-30T22:19:20.741Z,76.76
2018-03-30T22:21:48.101Z,77.00
2018-03-30T22:24:15.007Z,77.29
2018-03-30T22:26:42.429Z,77.55
2018-03-30T22:29:09.268Z,76.89
2018-03-30T22:31:36.116Z,76.63
2018-03-30T22:34:03.010Z,76.03
2018-03-30T22:36:30.180Z,76.17
2018-03-30T22:38:57.092Z,76.67
2018-03-30T22:41:23.934Z,76.88
2018-03-30T22:43:50.829Z,76.59
2018-03-30T22:46:17.711Z,77.19
2018-03-30T22:48:44.663Z,77.11
2018-03-30T22:51:11.524Z,76.97
2018-03-30T22:53:38.451Z,76.60
2018-03-30T22:56:05.339Z,76.70
2018-03-30T22:58:32.194Z,76.64
2018-03-30T23:00:59.847Z,77.09
2018-03-30T23:03:26.738Z,77.52
2018-03-30T23:05:53.643Z,77.80
2018-03-30T23:08:20.493Z,77.89
2018-03-30T23:10:47.343Z,77.80
2018-03-30T23:13:14.200Z,77.97
2018-03-30T23:15:41.115Z,78.04
2018-03-30T23:18:07.974Z,78.18
2018-03-30T23:20:34.886Z,78.31
2018-03-30T23:23:01.765Z,77.93
2018-03-30T23:25:28.637Z,77.55
2018-03-30T23:27:55.530Z,77.44
2018-03-30T23:30:22.563Z,77.37
2018-03-30T23:32:49.445Z,77.21
2018-03-30T23:35:16.356Z,77.18
2018-03-30T23:37:43.317Z,77.19
2018-03-30T23:40:10.186Z,77.08
2018-03-30T23:42:37.059Z,77.25
2018-03-30T23:45:03.924Z,77.24
2018-03-30T23:47:30.888Z,77.42
2018-03-30T23:49:57.752Z,77.24
2018-03-30T23:52:24.780Z,78.26
2018-03-30T23:54:51.658Z,78.34
2018-03-30T23:57:18.720Z,77.79
2018-03-30T23:59:45.597Z,78.09
